sensor_id;sensor_type;location;lat;lon;timestamp;P1;durP1;ratioP1;P2;durP2;ratioP2
84915;SDS011;75178;53.054;5.846;2024-03-23T00:54:21;18.15;;;3.78;;
84915;SDS011;75178;53.054;5.846;2024-03-23T00:57:05;26.40;;;5.15;;
84915;SDS011;75178;53.054;5.846;2024-03-23T00:59:50;24.30;;;4.13;;
84915;SDS011;75178;53.054;5.846;2024-03-23T01:02:34;23.02;;;4.47;;
84915;SDS011;75178;53.054;5.846;2024-03-23T01:05:18;20.45;;;4.50;;
84915;SDS011;75178;53.054;5.846;2024-03-23T01:08:02;25.58;;;4.15;;
84915;SDS011;75178;53.054;5.846;2024-03-23T01:10:54;23.70;;;3.97;;
84915;SDS011;75178;53.054;5.846;2024-03-23T01:13:39;23.75;;;4.45;;
84915;SDS011;75178;53.054;5.846;2024-03-23T01:16:23;22.58;;;4.05;;
84915;SDS011;75178;53.054;5.846;2024-03-23T01:19:07;24.63;;;4.47;;
84915;SDS011;75178;53.054;5.846;2024-03-23T01:21:51;18.00;;;4.18;;
84915;SDS011;75178;53.054;5.846;2024-03-23T01:24:35;30.67;;;4.47;;
84915;SDS011;75178;53.054;5.846;2024-03-23T01:27:21;22.52;;;4.65;;
84915;SDS011;75178;53.054;5.846;2024-03-23T01:30:06;19.27;;;4.47;;
84915;SDS011;75178;53.054;5.846;2024-03-23T01:32:51;20.63;;;3.88;;
84915;SDS011;75178;53.054;5.846;2024-03-23T01:35:35;18.80;;;4.97;;
84915;SDS011;75178;53.054;5.846;2024-03-23T01:38:19;13.95;;;2.97;;
84915;SDS011;75178;53.054;5.846;2024-03-23T01:41:03;16.05;;;3.03;;
84915;SDS011;75178;53.054;5.846;2024-03-23T01:43:48;22.65;;;3.85;;
84915;SDS011;75178;53.054;5.846;2024-03-23T01:46:32;19.02;;;3.50;;
84915;SDS011;75178;53.054;5.846;2024-03-23T01:49:16;24.08;;;6.57;;
84915;SDS011;75178;53.054;5.846;2024-03-23T01:52:02;23.83;;;3.30;;
84915;SDS011;75178;53.054;5.846;2024-03-23T01:54:47;16.13;;;4.07;;
84915;SDS011;75178;53.054;5.846;2024-03-23T01:57:32;22.02;;;4.57;;
84915;SDS011;75178;53.054;5.846;2024-03-23T02:00:17;20.42;;;3.95;;
84915;SDS011;75178;53.054;5.846;2024-03-23T02:03:01;18.52;;;3.03;;
84915;SDS011;75178;53.054;5.846;2024-03-23T02:05:46;25.52;;;4.35;;
84915;SDS011;75178;53.054;5.846;2024-03-23T02:08:30;19.23;;;3.83;;
84915;SDS011;75178;53.054;5.846;2024-03-23T02:11:14;30.75;;;5.40;;
84915;SDS011;75178;53.054;5.846;2024-03-23T02:13:59;18.25;;;3.42;;
84915;SDS011;75178;53.054;5.846;2024-03-23T02:16:44;18.27;;;3.28;;
84915;SDS011;75178;53.054;5.846;2024-03-23T02:19:28;21.02;;;3.05;;
84915;SDS011;75178;53.054;5.846;2024-03-23T02:22:12;19.63;;;3.30;;
84915;SDS011;75178;53.054;5.846;2024-03-23T02:24:58;16.90;;;3.40;;
84915;SDS011;75178;53.054;5.846;2024-03-23T02:27:42;26.10;;;3.60;;
84915;SDS011;75178;53.054;5.846;2024-03-23T02:30:26;18.15;;;4.10;;
84915;SDS011;75178;53.054;5.846;2024-03-23T02:33:10;17.65;;;3.22;;
84915;SDS011;75178;53.054;5.846;2024-03-23T02:35:55;19.70;;;2.58;;
84915;SDS011;75178;53.054;5.846;2024-03-23T02:38:40;25.13;;;2.63;;
84915;SDS011;75178;53.054;5.846;2024-03-23T02:41:25;24.92;;;3.70;;
84915;SDS011;75178;53.054;5.846;2024-03-23T02:44:10;21.67;;;3.13;;
84915;SDS011;75178;53.054;5.846;2024-03-23T02:46:54;15.30;;;3.30;;
84915;SDS011;75178;53.054;5.846;2024-03-23T02:49:38;19.50;;;3.28;;
84915;SDS011;75178;53.054;5.846;2024-03-23T02:52:22;20.27;;;3.40;;
84915;SDS011;75178;53.054;5.846;2024-03-23T02:55:06;22.85;;;3.50;;
84915;SDS011;75178;53.054;5.846;2024-03-23T02:57:52;15.00;;;2.83;;
84915;SDS011;75178;53.054;5.846;2024-03-23T03:00:36;20.10;;;2.75;;
84915;SDS011;75178;53.054;5.846;2024-03-23T03:03:21;24.42;;;3.63;;
84915;SDS011;75178;53.054;5.846;2024-03-23T03:06:05;22.35;;;3.03;;
84915;SDS011;75178;53.054;5.846;2024-03-23T03:08:49;17.90;;;3.33;;
84915;SDS011;75178;53.054;5.846;2024-03-23T03:11:33;25.40;;;3.85;;
84915;SDS011;75178;53.054;5.846;2024-03-23T03:14:19;20.00;;;3.22;;
84915;SDS011;75178;53.054;5.846;2024-03-23T03:17:03;17.48;;;2.80;;
84915;SDS011;75178;53.054;5.846;2024-03-23T03:19:47;21.30;;;4.30;;
84915;SDS011;75178;53.054;5.846;2024-03-23T03:22:31;18.13;;;2.70;;
84915;SDS011;75178;53.054;5.846;2024-03-23T03:25:15;17.25;;;3.00;;
84915;SDS011;75178;53.054;5.846;2024-03-23T03:28:00;18.38;;;3.33;;
84915;SDS011;75178;53.054;5.846;2024-03-23T03:30:46;15.70;;;2.83;;
84915;SDS011;75178;53.054;5.846;2024-03-23T03:33:30;23.00;;;3.70;;
84915;SDS011;75178;53.054;5.846;2024-03-23T03:36:14;21.10;;;3.72;;
84915;SDS011;75178;53.054;5.846;2024-03-23T03:38:58;15.85;;;2.53;;
84915;SDS011;75178;53.054;5.846;2024-03-23T03:41:42;18.05;;;3.58;;
84915;SDS011;75178;53.054;5.846;2024-03-23T03:44:27;18.92;;;3.03;;
84915;SDS011;75178;53.054;5.846;2024-03-23T03:47:12;15.50;;;3.25;;
84915;SDS011;75178;53.054;5.846;2024-03-23T03:49:56;14.25;;;2.83;;
84915;SDS011;75178;53.054;5.846;2024-03-23T03:52:40;24.05;;;3.60;;
84915;SDS011;75178;53.054;5.846;2024-03-23T03:55:24;21.25;;;3.92;;
84915;SDS011;75178;53.054;5.846;2024-03-23T03:58:08;17.00;;;2.75;;
84915;SDS011;75178;53.054;5.846;2024-03-23T04:00:52;16.23;;;2.78;;
84915;SDS011;75178;53.054;5.846;2024-03-23T04:03:38;14.50;;;2.33;;
84915;SDS011;75178;53.054;5.846;2024-03-23T04:06:22;22.35;;;4.30;;
84915;SDS011;75178;53.054;5.846;2024-03-23T04:09:06;19.67;;;3.17;;
84915;SDS011;75178;53.054;5.846;2024-03-23T04:11:50;17.25;;;3.00;;
84915;SDS011;75178;53.054;5.846;2024-03-23T04:14:35;15.48;;;2.72;;
84915;SDS011;75178;53.054;5.846;2024-03-23T04:17:19;18.58;;;3.25;;
84915;SDS011;75178;53.054;5.846;2024-03-23T04:20:06;24.63;;;3.45;;
84915;SDS011;75178;53.054;5.846;2024-03-23T04:22:51;23.27;;;3.15;;
84915;SDS011;75178;53.054;5.846;2024-03-23T04:25:35;16.10;;;3.35;;
84915;SDS011;75178;53.054;5.846;2024-03-23T04:28:19;23.35;;;2.75;;
84915;SDS011;75178;53.054;5.846;2024-03-23T04:31:03;18.95;;;3.35;;
84915;SDS011;75178;53.054;5.846;2024-03-23T04:33:47;22.40;;;3.33;;
84915;SDS011;75178;53.054;5.846;2024-03-23T04:36:33;22.95;;;3.75;;
84915;SDS011;75178;53.054;5.846;2024-03-23T04:39:17;19.85;;;2.85;;
84915;SDS011;75178;53.054;5.846;2024-03-23T04:42:01;12.50;;;2.42;;
84915;SDS011;75178;53.054;5.846;2024-03-23T04:44:45;17.92;;;3.00;;
84915;SDS011;75178;53.054;5.846;2024-03-23T04:47:29;22.38;;;2.90;;
84915;SDS011;75178;53.054;5.846;2024-03-23T04:50:13;12.27;;;3.05;;
84915;SDS011;75178;53.054;5.846;2024-03-23T04:52:59;23.45;;;2.70;;
84915;SDS011;75178;53.054;5.846;2024-03-23T04:55:43;15.82;;;2.47;;
84915;SDS011;75178;53.054;5.846;2024-03-23T04:58:27;20.95;;;3.08;;
84915;SDS011;75178;53.054;5.846;2024-03-23T05:01:12;17.70;;;3.28;;
84915;SDS011;75178;53.054;5.846;2024-03-23T05:03:57;13.85;;;2.30;;
84915;SDS011;75178;53.054;5.846;2024-03-23T05:06:42;9.93;;;2.50;;
84915;SDS011;75178;53.054;5.846;2024-03-23T05:09:27;14.20;;;2.38;;
84915;SDS011;75178;53.054;5.846;2024-03-23T05:12:12;14.32;;;2.78;;
84915;SDS011;75178;53.054;5.846;2024-03-23T05:14:56;16.95;;;3.03;;
84915;SDS011;75178;53.054;5.846;2024-03-23T05:17:40;17.33;;;2.95;;
84915;SDS011;75178;53.054;5.846;2024-03-23T05:20:24;14.55;;;3.05;;
84915;SDS011;75178;53.054;5.846;2024-03-23T05:23:08;17.70;;;3.22;;
84915;SDS011;75178;53.054;5.846;2024-03-23T05:25:54;17.90;;;2.65;;
84915;SDS011;75178;53.054;5.846;2024-03-23T05:28:38;14.43;;;2.45;;
84915;SDS011;75178;53.054;5.846;2024-03-23T05:31:22;15.57;;;3.20;;
84915;SDS011;75178;53.054;5.846;2024-03-23T05:34:07;17.20;;;3.08;;
84915;SDS011;75178;53.054;5.846;2024-03-23T05:36:51;16.45;;;2.60;;
84915;SDS011;75178;53.054;5.846;2024-03-23T05:39:35;18.50;;;2.92;;
84915;SDS011;75178;53.054;5.846;2024-03-23T05:42:21;19.80;;;4.70;;
84915;SDS011;75178;53.054;5.846;2024-03-23T05:45:05;16.80;;;3.03;;
84915;SDS011;75178;53.054;5.846;2024-03-23T05:47:50;20.67;;;2.92;;
84915;SDS011;75178;53.054;5.846;2024-03-23T05:50:34;14.00;;;2.95;;
84915;SDS011;75178;53.054;5.846;2024-03-23T05:53:18;22.52;;;4.05;;
84915;SDS011;75178;53.054;5.846;2024-03-23T05:56:04;20.60;;;2.88;;
84915;SDS011;75178;53.054;5.846;2024-03-23T05:58:49;17.08;;;3.10;;
84915;SDS011;75178;53.054;5.846;2024-03-23T06:01:34;15.43;;;2.80;;
84915;SDS011;75178;53.054;5.846;2024-03-23T06:04:18;15.75;;;2.90;;
84915;SDS011;75178;53.054;5.846;2024-03-23T06:07:02;26.27;;;3.35;;
84915;SDS011;75178;53.054;5.846;2024-03-23T06:09:46;17.65;;;3.67;;
84915;SDS011;75178;53.054;5.846;2024-03-23T06:12:30;22.90;;;3.20;;
84915;SDS011;75178;53.054;5.846;2024-03-23T06:15:16;11.77;;;2.60;;
84915;SDS011;75178;53.054;5.846;2024-03-23T06:18:01;14.10;;;2.70;;
84915;SDS011;75178;53.054;5.846;2024-03-23T06:20:45;13.35;;;2.45;;
84915;SDS011;75178;53.054;5.846;2024-03-23T06:23:29;11.70;;;1.90;;
84915;SDS011;75178;53.054;5.846;2024-03-23T06:26:13;10.75;;;2.20;;
84915;SDS011;75178;53.054;5.846;2024-03-23T06:28:57;9.95;;;1.50;;
84915;SDS011;75178;53.054;5.846;2024-03-23T06:31:42;8.77;;;1.40;;
84915;SDS011;75178;53.054;5.846;2024-03-23T06:34:27;9.00;;;1.70;;
84915;SDS011;75178;53.054;5.846;2024-03-23T06:37:11;5.35;;;1.45;;
84915;SDS011;75178;53.054;5.846;2024-03-23T06:39:56;3.60;;;1.13;;
84915;SDS011;75178;53.054;5.846;2024-03-23T06:42:40;11.98;;;1.95;;
84915;SDS011;75178;53.054;5.846;2024-03-23T06:45:24;6.00;;;1.73;;
84915;SDS011;75178;53.054;5.846;2024-03-23T06:48:10;5.95;;;1.88;;
84915;SDS011;75178;53.054;5.846;2024-03-23T06:50:55;8.20;;;2.10;;
84915;SDS011;75178;53.054;5.846;2024-03-23T06:53:39;6.60;;;1.67;;
84915;SDS011;75178;53.054;5.846;2024-03-23T06:56:23;11.48;;;2.17;;
84915;SDS011;75178;53.054;5.846;2024-03-23T06:59:08;16.15;;;2.58;;
84915;SDS011;75178;53.054;5.846;2024-03-23T07:01:52;12.65;;;2.58;;
84915;SDS011;75178;53.054;5.846;2024-03-23T07:04:37;21.20;;;3.15;;
84915;SDS011;75178;53.054;5.846;2024-03-23T07:07:22;13.70;;;2.53;;
84915;SDS011;75178;53.054;5.846;2024-03-23T07:10:06;10.50;;;2.20;;
84915;SDS011;75178;53.054;5.846;2024-03-23T07:12:51;9.48;;;2.05;;
84915;SDS011;75178;53.054;5.846;2024-03-23T07:15:35;12.45;;;3.33;;
84915;SDS011;75178;53.054;5.846;2024-03-23T07:18:19;15.90;;;3.03;;
84915;SDS011;75178;53.054;5.846;2024-03-23T07:21:05;16.33;;;2.45;;
84915;SDS011;75178;53.054;5.846;2024-03-23T07:23:49;14.48;;;3.08;;
84915;SDS011;75178;53.054;5.846;2024-03-23T07:26:33;10.60;;;2.50;;
84915;SDS011;75178;53.054;5.846;2024-03-23T07:29:17;16.10;;;2.95;;
84915;SDS011;75178;53.054;5.846;2024-03-23T07:32:01;13.30;;;2.22;;
84915;SDS011;75178;53.054;5.846;2024-03-23T07:34:46;26.70;;;3.50;;
84915;SDS011;75178;53.054;5.846;2024-03-23T07:37:31;19.95;;;3.33;;
84915;SDS011;75178;53.054;5.846;2024-03-23T07:40:15;21.08;;;3.78;;
84915;SDS011;75178;53.054;5.846;2024-03-23T07:42:59;18.08;;;3.72;;
84915;SDS011;75178;53.054;5.846;2024-03-23T07:45:43;14.90;;;3.58;;
84915;SDS011;75178;53.054;5.846;2024-03-23T07:48:35;15.40;;;2.90;;
84915;SDS011;75178;53.054;5.846;2024-03-23T07:51:21;19.35;;;4.32;;
84915;SDS011;75178;53.054;5.846;2024-03-23T07:54:07;17.00;;;3.17;;
84915;SDS011;75178;53.054;5.846;2024-03-23T07:56:51;17.77;;;3.85;;
84915;SDS011;75178;53.054;5.846;2024-03-23T07:59:35;22.17;;;3.03;;
84915;SDS011;75178;53.054;5.846;2024-03-23T08:02:19;16.33;;;2.60;;
84915;SDS011;75178;53.054;5.846;2024-03-23T08:05:04;20.73;;;4.47;;
84915;SDS011;75178;53.054;5.846;2024-03-23T08:07:50;11.27;;;3.00;;
84915;SDS011;75178;53.054;5.846;2024-03-23T08:10:35;20.60;;;3.50;;
84915;SDS011;75178;53.054;5.846;2024-03-23T08:13:20;17.10;;;3.13;;
84915;SDS011;75178;53.054;5.846;2024-03-23T08:16:04;18.63;;;3.47;;
84915;SDS011;75178;53.054;5.846;2024-03-23T08:18:50;18.65;;;3.35;;
84915;SDS011;75178;53.054;5.846;2024-03-23T08:21:35;21.70;;;3.58;;
84915;SDS011;75178;53.054;5.846;2024-03-23T08:24:19;19.40;;;3.47;;
84915;SDS011;75178;53.054;5.846;2024-03-23T08:27:05;14.20;;;2.95;;
84915;SDS011;75178;53.054;5.846;2024-03-23T08:29:49;16.52;;;2.55;;
84915;SDS011;75178;53.054;5.846;2024-03-23T08:32:33;14.23;;;2.65;;
84915;SDS011;75178;53.054;5.846;2024-03-23T08:35:17;12.43;;;1.95;;
84915;SDS011;75178;53.054;5.846;2024-03-23T08:38:02;14.18;;;2.63;;
84915;SDS011;75178;53.054;5.846;2024-03-23T08:40:46;9.98;;;1.90;;
84915;SDS011;75178;53.054;5.846;2024-03-23T08:43:32;11.75;;;2.10;;
84915;SDS011;75178;53.054;5.846;2024-03-23T08:46:17;9.40;;;2.08;;
84915;SDS011;75178;53.054;5.846;2024-03-23T08:49:01;8.70;;;2.08;;
84915;SDS011;75178;53.054;5.846;2024-03-23T08:51:45;12.77;;;3.03;;
84915;SDS011;75178;53.054;5.846;2024-03-23T08:54:29;12.40;;;2.28;;
84915;SDS011;75178;53.054;5.846;2024-03-23T08:57:13;10.52;;;1.88;;
84915;SDS011;75178;53.054;5.846;2024-03-23T08:59:58;19.23;;;2.63;;
84915;SDS011;75178;53.054;5.846;2024-03-23T09:02:43;16.80;;;2.80;;
84915;SDS011;75178;53.054;5.846;2024-03-23T09:05:30;12.45;;;2.95;;
84915;SDS011;75178;53.054;5.846;2024-03-23T09:08:15;16.40;;;3.00;;
84915;SDS011;75178;53.054;5.846;2024-03-23T09:11:03;19.42;;;3.35;;
84915;SDS011;75178;53.054;5.846;2024-03-23T09:13:47;18.50;;;2.25;;
84915;SDS011;75178;53.054;5.846;2024-03-23T09:16:33;9.93;;;2.05;;
84915;SDS011;75178;53.054;5.846;2024-03-23T09:19:17;15.95;;;2.15;;
84915;SDS011;75178;53.054;5.846;2024-03-23T09:22:01;10.65;;;2.28;;
84915;SDS011;75178;53.054;5.846;2024-03-23T09:24:45;17.25;;;2.72;;
84915;SDS011;75178;53.054;5.846;2024-03-23T09:27:29;10.25;;;2.20;;
84915;SDS011;75178;53.054;5.846;2024-03-23T09:30:13;7.05;;;1.92;;
84915;SDS011;75178;53.054;5.846;2024-03-23T09:32:59;13.25;;;2.17;;
84915;SDS011;75178;53.054;5.846;2024-03-23T09:35:44;10.68;;;2.97;;
84915;SDS011;75178;53.054;5.846;2024-03-23T09:38:28;13.35;;;3.17;;
84915;SDS011;75178;53.054;5.846;2024-03-23T09:41:12;14.40;;;2.78;;
84915;SDS011;75178;53.054;5.846;2024-03-23T09:43:57;14.30;;;2.88;;
84915;SDS011;75178;53.054;5.846;2024-03-23T09:46:42;27.95;;;3.13;;
84915;SDS011;75178;53.054;5.846;2024-03-23T09:49:27;19.77;;;2.97;;
84915;SDS011;75178;53.054;5.846;2024-03-23T09:52:11;24.77;;;3.15;;
84915;SDS011;75178;53.054;5.846;2024-03-23T09:54:56;18.30;;;3.33;;
84915;SDS011;75178;53.054;5.846;2024-03-23T09:57:40;23.52;;;2.70;;
84915;SDS011;75178;53.054;5.846;2024-03-23T10:00:25;18.42;;;3.63;;
84915;SDS011;75178;53.054;5.846;2024-03-23T10:03:09;19.63;;;3.30;;
84915;SDS011;75178;53.054;5.846;2024-03-23T10:06:04;14.32;;;2.58;;
84915;SDS011;75178;53.054;5.846;2024-03-23T10:08:49;9.80;;;2.05;;
84915;SDS011;75178;53.054;5.846;2024-03-23T10:11:34;12.38;;;2.00;;
84915;SDS011;75178;53.054;5.846;2024-03-23T10:14:22;7.57;;;1.58;;
84915;SDS011;75178;53.054;5.846;2024-03-23T10:17:14;7.78;;;1.63;;
84915;SDS011;75178;53.054;5.846;2024-03-23T10:19:59;13.07;;;1.80;;
84915;SDS011;75178;53.054;5.846;2024-03-23T10:22:44;9.13;;;2.60;;
84915;SDS011;75178;53.054;5.846;2024-03-23T10:25:29;8.70;;;1.67;;
84915;SDS011;75178;53.054;5.846;2024-03-23T10:28:13;12.18;;;2.42;;
84915;SDS011;75178;53.054;5.846;2024-03-23T10:30:57;11.88;;;2.20;;
84915;SDS011;75178;53.054;5.846;2024-03-23T10:33:52;11.38;;;2.20;;
84915;SDS011;75178;53.054;5.846;2024-03-23T10:36:36;9.43;;;1.77;;
84915;SDS011;75178;53.054;5.846;2024-03-23T10:39:24;10.75;;;2.58;;
84915;SDS011;75178;53.054;5.846;2024-03-23T10:42:09;12.73;;;2.47;;
84915;SDS011;75178;53.054;5.846;2024-03-23T10:44:53;10.32;;;1.92;;
84915;SDS011;75178;53.054;5.846;2024-03-23T10:47:37;8.85;;;2.03;;
84915;SDS011;75178;53.054;5.846;2024-03-23T10:50:22;12.13;;;2.53;;
84915;SDS011;75178;53.054;5.846;2024-03-23T10:53:06;16.05;;;2.80;;
84915;SDS011;75178;53.054;5.846;2024-03-23T10:55:52;12.85;;;2.35;;
84915;SDS011;75178;53.054;5.846;2024-03-23T10:58:39;12.45;;;2.60;;
84915;SDS011;75178;53.054;5.846;2024-03-23T11:01:25;12.10;;;2.40;;
84915;SDS011;75178;53.054;5.846;2024-03-23T11:04:09;19.15;;;3.15;;
84915;SDS011;75178;53.054;5.846;2024-03-23T11:06:54;21.02;;;3.72;;
84915;SDS011;75178;53.054;5.846;2024-03-23T11:09:38;15.63;;;3.47;;
84915;SDS011;75178;53.054;5.846;2024-03-23T11:12:28;20.13;;;3.75;;
84915;SDS011;75178;53.054;5.846;2024-03-23T11:15:13;11.48;;;2.05;;
84915;SDS011;75178;53.054;5.846;2024-03-23T11:18:01;7.05;;;1.40;;
84915;SDS011;75178;53.054;5.846;2024-03-23T11:20:47;7.20;;;1.27;;
84915;SDS011;75178;53.054;5.846;2024-03-23T11:23:31;6.95;;;1.30;;
84915;SDS011;75178;53.054;5.846;2024-03-23T11:26:16;8.30;;;1.42;;
84915;SDS011;75178;53.054;5.846;2024-03-23T11:29:09;30.95;;;4.95;;
84915;SDS011;75178;53.054;5.846;2024-03-23T11:31:53;8.38;;;2.17;;
84915;SDS011;75178;53.054;5.846;2024-03-23T11:34:37;5.47;;;1.50;;
84915;SDS011;75178;53.054;5.846;2024-03-23T11:37:22;8.63;;;1.48;;
84915;SDS011;75178;53.054;5.846;2024-03-23T11:40:19;4.60;;;1.10;;
84915;SDS011;75178;53.054;5.846;2024-03-23T11:43:04;8.75;;;1.30;;
84915;SDS011;75178;53.054;5.846;2024-03-23T11:45:51;6.97;;;1.45;;
84915;SDS011;75178;53.054;5.846;2024-03-23T11:48:36;8.65;;;1.42;;
84915;SDS011;75178;53.054;5.846;2024-03-23T11:51:20;15.98;;;2.15;;
84915;SDS011;75178;53.054;5.846;2024-03-23T11:54:07;18.08;;;2.85;;
84915;SDS011;75178;53.054;5.846;2024-03-23T11:56:55;13.07;;;2.30;;
84915;SDS011;75178;53.054;5.846;2024-03-23T11:59:40;14.13;;;2.90;;
84915;SDS011;75178;53.054;5.846;2024-03-23T12:02:26;15.30;;;2.80;;
84915;SDS011;75178;53.054;5.846;2024-03-23T12:05:14;19.63;;;2.42;;
84915;SDS011;75178;53.054;5.846;2024-03-23T12:08:15;5.93;;;1.35;;
84915;SDS011;75178;53.054;5.846;2024-03-23T12:11:06;3.78;;;1.13;;
84915;SDS011;75178;53.054;5.846;2024-03-23T12:13:52;8.20;;;1.65;;
84915;SDS011;75178;53.054;5.846;2024-03-23T12:16:36;9.07;;;1.92;;
84915;SDS011;75178;53.054;5.846;2024-03-23T12:19:21;9.73;;;1.88;;
84915;SDS011;75178;53.054;5.846;2024-03-23T12:22:06;6.88;;;1.77;;
84915;SDS011;75178;53.054;5.846;2024-03-23T12:24:50;13.30;;;2.15;;
84915;SDS011;75178;53.054;5.846;2024-03-23T12:27:35;11.02;;;2.00;;
84915;SDS011;75178;53.054;5.846;2024-03-23T12:30:19;8.55;;;2.00;;
84915;SDS011;75178;53.054;5.846;2024-03-23T12:33:03;9.55;;;2.45;;
84915;SDS011;75178;53.054;5.846;2024-03-23T12:35:49;22.13;;;4.35;;
84915;SDS011;75178;53.054;5.846;2024-03-23T12:38:33;10.60;;;1.80;;
84915;SDS011;75178;53.054;5.846;2024-03-23T12:41:17;10.50;;;2.00;;
84915;SDS011;75178;53.054;5.846;2024-03-23T12:44:02;9.00;;;2.08;;
84915;SDS011;75178;53.054;5.846;2024-03-23T12:46:46;20.02;;;2.92;;
84915;SDS011;75178;53.054;5.846;2024-03-23T12:49:30;15.02;;;2.40;;
84915;SDS011;75178;53.054;5.846;2024-03-23T12:52:16;17.60;;;2.88;;
84915;SDS011;75178;53.054;5.846;2024-03-23T12:55:00;17.98;;;2.90;;
84915;SDS011;75178;53.054;5.846;2024-03-23T12:57:44;17.08;;;4.28;;
84915;SDS011;75178;53.054;5.846;2024-03-23T13:00:28;16.80;;;3.20;;
84915;SDS011;75178;53.054;5.846;2024-03-23T13:03:13;23.73;;;3.33;;
84915;SDS011;75178;53.054;5.846;2024-03-23T13:05:58;16.67;;;4.13;;
84915;SDS011;75178;53.054;5.846;2024-03-23T13:08:45;18.00;;;3.20;;
84915;SDS011;75178;53.054;5.846;2024-03-23T13:11:29;19.75;;;3.55;;
84915;SDS011;75178;53.054;5.846;2024-03-23T13:14:13;12.93;;;2.53;;
84915;SDS011;75178;53.054;5.846;2024-03-23T13:16:57;13.63;;;1.95;;
84915;SDS011;75178;53.054;5.846;2024-03-23T13:19:42;12.50;;;2.67;;
84915;SDS011;75178;53.054;5.846;2024-03-23T13:22:26;22.08;;;3.83;;
84915;SDS011;75178;53.054;5.846;2024-03-23T13:25:11;16.13;;;2.58;;
84915;SDS011;75178;53.054;5.846;2024-03-23T13:27:58;17.02;;;2.88;;
84915;SDS011;75178;53.054;5.846;2024-03-23T13:30:49;20.25;;;3.22;;
84915;SDS011;75178;53.054;5.846;2024-03-23T13:33:33;21.88;;;3.42;;
84915;SDS011;75178;53.054;5.846;2024-03-23T13:36:18;17.02;;;3.45;;
84915;SDS011;75178;53.054;5.846;2024-03-23T13:39:02;23.15;;;3.15;;
84915;SDS011;75178;53.054;5.846;2024-03-23T13:41:48;20.50;;;2.65;;
84915;SDS011;75178;53.054;5.846;2024-03-23T13:44:32;19.55;;;2.85;;
84915;SDS011;75178;53.054;5.846;2024-03-23T13:47:16;10.35;;;2.58;;
84915;SDS011;75178;53.054;5.846;2024-03-23T13:50:00;11.98;;;2.17;;
84915;SDS011;75178;53.054;5.846;2024-03-23T13:52:45;10.73;;;2.05;;
84915;SDS011;75178;53.054;5.846;2024-03-23T13:55:29;14.75;;;2.80;;
84915;SDS011;75178;53.054;5.846;2024-03-23T13:58:14;19.10;;;3.13;;
84915;SDS011;75178;53.054;5.846;2024-03-23T14:00:59;18.73;;;3.55;;
84915;SDS011;75178;53.054;5.846;2024-03-23T14:03:43;19.05;;;3.45;;
84915;SDS011;75178;53.054;5.846;2024-03-23T14:06:27;19.25;;;2.38;;
84915;SDS011;75178;53.054;5.846;2024-03-23T14:09:11;18.48;;;2.97;;
84915;SDS011;75178;53.054;5.846;2024-03-23T14:11:56;17.23;;;3.42;;
84915;SDS011;75178;53.054;5.846;2024-03-23T14:14:41;14.60;;;2.45;;
84915;SDS011;75178;53.054;5.846;2024-03-23T14:17:26;12.98;;;2.63;;
84915;SDS011;75178;53.054;5.846;2024-03-23T14:20:10;15.05;;;2.28;;
84915;SDS011;75178;53.054;5.846;2024-03-23T14:22:55;9.70;;;1.73;;
84915;SDS011;75178;53.054;5.846;2024-03-23T14:25:39;11.40;;;2.08;;
84915;SDS011;75178;53.054;5.846;2024-03-23T14:28:23;10.32;;;1.85;;
84915;SDS011;75178;53.054;5.846;2024-03-23T14:31:09;8.48;;;1.73;;
84915;SDS011;75178;53.054;5.846;2024-03-23T14:33:54;11.63;;;2.10;;
84915;SDS011;75178;53.054;5.846;2024-03-23T14:36:38;16.88;;;2.42;;
84915;SDS011;75178;53.054;5.846;2024-03-23T14:39:22;16.13;;;2.95;;
84915;SDS011;75178;53.054;5.846;2024-03-23T14:42:06;14.05;;;2.25;;
84915;SDS011;75178;53.054;5.846;2024-03-23T14:44:51;12.48;;;2.15;;
84915;SDS011;75178;53.054;5.846;2024-03-23T14:47:36;16.67;;;2.30;;
84915;SDS011;75178;53.054;5.846;2024-03-23T14:50:21;17.80;;;2.95;;
84915;SDS011;75178;53.054;5.846;2024-03-23T14:53:05;14.68;;;3.05;;
84915;SDS011;75178;53.054;5.846;2024-03-23T14:55:49;11.38;;;2.55;;
84915;SDS011;75178;53.054;5.846;2024-03-23T14:58:33;11.35;;;2.85;;
84915;SDS011;75178;53.054;5.846;2024-03-23T15:01:17;11.80;;;2.42;;
84915;SDS011;75178;53.054;5.846;2024-03-23T15:04:03;11.18;;;2.13;;
84915;SDS011;75178;53.054;5.846;2024-03-23T15:06:47;15.77;;;2.70;;
84915;SDS011;75178;53.054;5.846;2024-03-23T15:09:31;9.43;;;2.47;;
84915;SDS011;75178;53.054;5.846;2024-03-23T15:12:16;13.05;;;3.00;;
84915;SDS011;75178;53.054;5.846;2024-03-23T15:15:00;13.13;;;2.53;;
84915;SDS011;75178;53.054;5.846;2024-03-23T15:17:44;11.38;;;2.30;;
84915;SDS011;75178;53.054;5.846;2024-03-23T15:20:29;8.40;;;2.17;;
84915;SDS011;75178;53.054;5.846;2024-03-23T15:23:14;7.43;;;1.85;;
84915;SDS011;75178;53.054;5.846;2024-03-23T15:25:58;8.15;;;1.23;;
84915;SDS011;75178;53.054;5.846;2024-03-23T15:28:43;3.28;;;0.93;;
84915;SDS011;75178;53.054;5.846;2024-03-23T15:31:31;5.57;;;0.98;;
84915;SDS011;75178;53.054;5.846;2024-03-23T15:34:16;4.28;;;1.00;;
84915;SDS011;75178;53.054;5.846;2024-03-23T15:37:01;5.57;;;1.42;;
84915;SDS011;75178;53.054;5.846;2024-03-23T15:39:45;8.13;;;1.38;;
84915;SDS011;75178;53.054;5.846;2024-03-23T15:42:30;9.00;;;2.00;;
84915;SDS011;75178;53.054;5.846;2024-03-23T15:45:14;8.32;;;1.30;;
84915;SDS011;75178;53.054;5.846;2024-03-23T15:47:58;6.25;;;1.45;;
84915;SDS011;75178;53.054;5.846;2024-03-23T15:50:49;9.18;;;1.92;;
84915;SDS011;75178;53.054;5.846;2024-03-23T15:53:35;11.68;;;1.90;;
84915;SDS011;75178;53.054;5.846;2024-03-23T15:56:19;9.25;;;2.22;;
84915;SDS011;75178;53.054;5.846;2024-03-23T15:59:03;14.35;;;2.33;;
84915;SDS011;75178;53.054;5.846;2024-03-23T16:01:48;9.95;;;2.38;;
84915;SDS011;75178;53.054;5.846;2024-03-23T16:04:32;10.40;;;2.28;;
84915;SDS011;75178;53.054;5.846;2024-03-23T16:07:16;13.27;;;2.17;;
84915;SDS011;75178;53.054;5.846;2024-03-23T16:10:01;16.77;;;2.60;;
84915;SDS011;75178;53.054;5.846;2024-03-23T16:12:46;11.20;;;2.13;;
84915;SDS011;75178;53.054;5.846;2024-03-23T16:15:30;10.27;;;2.50;;
84915;SDS011;75178;53.054;5.846;2024-03-23T16:18:14;12.68;;;2.35;;
84915;SDS011;75178;53.054;5.846;2024-03-23T16:20:58;14.02;;;2.97;;
84915;SDS011;75178;53.054;5.846;2024-03-23T16:23:43;13.20;;;2.45;;
84915;SDS011;75178;53.054;5.846;2024-03-23T16:26:29;19.30;;;2.78;;
84915;SDS011;75178;53.054;5.846;2024-03-23T16:29:13;11.88;;;2.55;;
84915;SDS011;75178;53.054;5.846;2024-03-23T16:31:57;12.75;;;2.80;;
84915;SDS011;75178;53.054;5.846;2024-03-23T16:34:41;15.60;;;2.97;;
84915;SDS011;75178;53.054;5.846;2024-03-23T16:37:25;17.20;;;2.50;;
84915;SDS011;75178;53.054;5.846;2024-03-23T16:40:10;16.98;;;2.85;;
84915;SDS011;75178;53.054;5.846;2024-03-23T16:42:56;11.02;;;2.75;;
84915;SDS011;75178;53.054;5.846;2024-03-23T16:45:40;14.05;;;2.67;;
84915;SDS011;75178;53.054;5.846;2024-03-23T16:48:24;11.75;;;2.92;;
84915;SDS011;75178;53.054;5.846;2024-03-23T16:51:10;15.73;;;2.67;;
84915;SDS011;75178;53.054;5.846;2024-03-23T16:53:55;22.35;;;2.75;;
84915;SDS011;75178;53.054;5.846;2024-03-23T16:56:39;15.05;;;2.72;;
84915;SDS011;75178;53.054;5.846;2024-03-23T16:59:24;14.43;;;2.47;;
84915;SDS011;75178;53.054;5.846;2024-03-23T17:02:09;13.82;;;2.75;;
84915;SDS011;75178;53.054;5.846;2024-03-23T17:04:53;12.63;;;2.40;;
84915;SDS011;75178;53.054;5.846;2024-03-23T17:07:39;10.35;;;2.28;;
84915;SDS011;75178;53.054;5.846;2024-03-23T17:10:23;14.90;;;3.00;;
84915;SDS011;75178;53.054;5.846;2024-03-23T17:13:07;11.68;;;2.95;;